Time;durP1;ratioP1;P1;durP2;ratioP2;P2;SDS_P1;SDS_P2;PMS_P1;PMS_P2;Temp;Humidity;BMP_temperature;BMP_pressure;BME280_temperature;BME280_humidity;BME280_pressure;Samples;Min_cycle;Max_cycle;Signal;HPM_P1;HPM_P2
2021/01/11 00:01:05;;;;;;;29.87;19.80;;;-4.40;99.90;;;;;;5084472;28;20214;-73
2021/01/11 00:03:31;;;;;;;27.50;20.13;;;-4.40;99.90;;;;;;5082733;28;20716;-71
2021/01/11 00:05:57;;;;;;;31.67;20.33;;;-4.40;99.90;;;;;;5073921;28;20261;-72
2021/01/11 00:08:22;;;;;;;28.33;20.53;;;-4.40;99.90;;;;;;5079615;28;20209;-72
2021/01/11 00:10:50;;;;;;;31.57;20.70;;;-4.50;99.90;;;;;;5084930;28;20226;-72
2021/01/11 00:13:15;;;;;;;30.47;21.13;;;-4.50;99.90;;;;;;5086169;28;20226;-73
2021/01/11 00:15:41;;;;;;;28.83;21.40;;;-4.50;99.90;;;;;;5078995;28;20835;-72
2021/01/11 00:18:06;;;;;;;30.63;21.67;;;-4.50;99.90;;;;;;5079692;28;20247;-74
2021/01/11 00:20:32;;;;;;;31.03;21.60;;;-4.60;99.90;;;;;;5086408;28;20186;-73
2021/01/11 00:22:58;;;;;;;30.33;21.23;;;-4.60;99.90;;;;;;5088669;28;20191;-72
2021/01/11 00:25:23;;;;;;;31.17;21.77;;;-4.60;99.90;;;;;;5080971;28;20208;-72
2021/01/11 00:27:49;;;;;;;32.23;21.47;;;-4.60;99.90;;;;;;5081301;28;20250;-71
2021/01/11 00:30:16;;;;;;;29.37;21.83;;;-4.70;99.90;;;;;;5086648;28;20272;-72
2021/01/11 00:32:41;;;;;;;30.53;21.27;;;-4.70;99.90;;;;;;5081541;28;20215;-72
2021/01/11 00:35:08;;;;;;;35.20;24.33;;;-4.80;99.90;;;;;;5084379;28;20178;-72
2021/01/11 00:37:34;;;;;;;34.40;23.67;;;-4.80;99.90;;;;;;5071335;28;20181;-72
2021/01/11 00:40:00;;;;;;;36.77;25.60;;;-4.80;99.90;;;;;;5083152;28;20236;-74
2021/01/11 00:42:26;;;;;;;33.43;23.60;;;-4.90;99.90;;;;;;5086112;28;20640;-72
2021/01/11 00:44:51;;;;;;;38.83;26.13;;;-4.90;99.90;;;;;;5080447;28;20179;-71
2021/01/11 00:47:17;;;;;;;34.10;22.50;;;-5.00;99.90;;;;;;5073561;28;20207;-72
2021/01/11 00:49:43;;;;;;;34.83;23.93;;;-5.00;99.90;;;;;;5084208;28;20181;-73
2021/01/11 00:52:08;;;;;;;32.00;22.67;;;-5.00;99.90;;;;;;5077622;28;20275;-74
2021/01/11 00:54:34;;;;;;;36.30;24.53;;;-5.00;99.90;;;;;;5081029;28;20200;-72
2021/01/11 00:57:00;;;;;;;40.00;25.67;;;-5.10;99.90;;;;;;5073719;28;20201;-72
2021/01/11 00:59:26;;;;;;;38.20;25.97;;;-5.00;99.90;;;;;;5073186;28;20190;-73
2021/01/11 01:01:53;;;;;;;38.10;24.43;;;-5.00;99.90;;;;;;5084873;28;20212;-73
2021/01/11 01:04:19;;;;;;;40.33;26.07;;;-5.00;99.90;;;;;;5075395;28;20704;-72
2021/01/11 01:06:45;;;;;;;35.07;24.33;;;-5.00;99.90;;;;;;5095838;28;20209;-72
2021/01/11 01:09:11;;;;;;;38.17;25.00;;;-5.10;99.90;;;;;;5080190;28;20215;-72
2021/01/11 01:11:38;;;;;;;35.63;24.87;;;-5.10;99.90;;;;;;5084034;28;20237;-72
2021/01/11 01:14:04;;;;;;;40.87;26.70;;;-5.20;99.90;;;;;;5079182;28;20182;-72
2021/01/11 01:16:30;;;;;;;37.77;24.40;;;-5.30;99.90;;;;;;5079096;28;20202;-71
2021/01/11 01:18:56;;;;;;;37.43;24.87;;;-5.30;99.90;;;;;;5081485;28;20261;-72
2021/01/11 01:21:21;;;;;;;37.77;24.90;;;-5.30;99.90;;;;;;5074479;28;20190;-76
2021/01/11 01:23:47;;;;;;;37.73;25.57;;;-5.20;99.90;;;;;;5084735;28;20662;-72
2021/01/11 01:26:13;;;;;;;35.90;23.10;;;-5.20;99.90;;;;;;5079832;28;20198;-72
2021/01/11 01:28:39;;;;;;;35.70;22.93;;;-5.20;99.90;;;;;;5079624;28;20680;-73
2021/01/11 01:31:04;;;;;;;31.97;21.77;;;-5.10;99.90;;;;;;5080723;28;20179;-73
2021/01/11 01:33:30;;;;;;;34.73;23.97;;;-5.10;99.90;;;;;;5080205;28;20201;-72
2021/01/11 01:35:55;;;;;;;34.73;22.77;;;-5.20;99.90;;;;;;5077953;28;20750;-72
2021/01/11 01:38:21;;;;;;;34.47;22.53;;;-5.20;99.90;;;;;;5079473;28;20236;-73
2021/01/11 01:40:46;;;;;;;32.67;23.57;;;-5.20;99.90;;;;;;5083713;28;20546;-73
2021/01/11 01:43:13;;;;;;;37.10;23.70;;;-5.20;99.90;;;;;;5082004;28;20175;-72
2021/01/11 01:45:39;;;;;;;33.53;22.70;;;-5.30;99.90;;;;;;5082316;28;20206;-73
2021/01/11 01:48:06;;;;;;;35.80;24.17;;;-5.30;99.90;;;;;;5078027;28;20212;-73
2021/01/11 01:50:31;;;;;;;35.70;23.13;;;-5.30;99.90;;;;;;5092752;28;20180;-72
2021/01/11 01:52:57;;;;;;;32.53;22.20;;;-5.40;99.90;;;;;;5078383;28;20757;-72
2021/01/11 01:55:23;;;;;;;37.20;23.10;;;-5.40;99.90;;;;;;5078588;28;20202;-73
2021/01/11 01:57:52;;;;;;;33.63;22.17;;;-5.40;99.90;;;;;;5073840;28;20183;-73
2021/01/11 02:00:19;;;;;;;33.53;23.37;;;-5.50;99.90;;;;;;5083885;28;20182;-72
2021/01/11 02:02:44;;;;;;;36.30;23.57;;;-5.50;99.90;;;;;;5077555;28;20583;-72
2021/01/11 02:05:10;;;;;;;34.60;21.87;;;-5.50;99.90;;;;;;5082955;28;20185;-72
2021/01/11 02:07:46;;;;;;;30.23;21.17;;;-5.50;99.90;;;;;;5074862;28;20179;-71
2021/01/11 02:10:44;;;;;;;33.97;21.77;;;-5.50;99.90;;;;;;5086449;28;20182;-72
2021/01/11 02:13:37;;;;;;;35.13;22.67;;;-5.60;99.90;;;;;;5079851;28;20758;-73
2021/01/11 02:16:17;;;;;;;32.33;21.60;;;-5.60;99.90;;;;;;5084431;28;20564;-71
2021/01/11 02:19:23;;;;;;;36.50;24.00;;;-5.50;99.90;;;;;;5086103;28;20174;-72
2021/01/11 02:21:49;;;;;;;32.37;21.10;;;-5.50;99.90;;;;;;5080989;28;20197;-71
2021/01/11 02:24:32;;;;;;;32.67;21.47;;;-5.50;99.90;;;;;;5086478;28;20193;-72
2021/01/11 02:27:07;;;;;;;32.43;21.37;;;-5.50;99.90;;;;;;5081728;28;20209;-73
2021/01/11 02:29:52;;;;;;;31.53;20.60;;;-5.40;99.90;;;;;;5081880;28;20172;-73
2021/01/11 02:32:19;;;;;;;32.67;21.43;;;-5.40;99.90;;;;;;5083666;28;20365;-73
2021/01/11 02:34:47;;;;;;;35.03;24.07;;;-5.50;99.90;;;;;;5081301;28;20181;-72
2021/01/11 02:37:13;;;;;;;33.20;22.20;;;-5.50;99.90;;;;;;5077760;28;20199;-72
2021/01/11 02:39:40;;;;;;;30.93;21.67;;;-5.50;99.90;;;;;;5082715;28;20212;-73
2021/01/11 02:42:06;;;;;;;33.90;21.87;;;-5.50;99.90;;;;;;5078434;28;20693;-72
2021/01/11 02:44:32;;;;;;;33.63;23.33;;;-5.60;99.90;;;;;;5085297;28;20265;-72
2021/01/11 02:46:57;;;;;;;31.10;20.97;;;-5.70;99.90;;;;;;5089984;28;20206;-73
2021/01/11 02:49:26;;;;;;;34.70;22.07;;;-5.70;99.90;;;;;;5078738;28;20185;-72
2021/01/11 02:52:04;;;;;;;34.37;23.73;;;-5.70;99.90;;;;;;5083334;28;20198;-72
2021/01/11 02:54:43;;;;;;;33.50;23.43;;;-5.70;99.90;;;;;;5084721;28;20178;-72
2021/01/11 02:57:29;;;;;;;33.90;23.70;;;-5.70;99.90;;;;;;5080526;28;20292;-72
2021/01/11 03:00:02;;;;;;;33.07;22.57;;;-5.70;99.90;;;;;;5079764;28;20530;-72
2021/01/11 03:02:31;;;;;;;35.30;23.37;;;-5.70;99.90;;;;;;5084499;28;20562;-73
2021/01/11 03:04:57;;;;;;;32.03;21.60;;;-5.60;99.90;;;;;;5077769;28;20226;-72
2021/01/11 03:07:23;;;;;;;34.80;22.03;;;-5.60;99.90;;;;;;5074195;28;20706;-72
2021/01/11 03:09:49;;;;;;;31.50;21.50;;;-5.60;99.90;;;;;;5080192;28;20242;-72
2021/01/11 03:12:15;;;;;;;34.37;23.53;;;-5.70;99.90;;;;;;5085317;28;20285;-72
2021/01/11 03:14:41;;;;;;;32.97;23.07;;;-5.70;99.90;;;;;;5081292;28;20174;-72
2021/01/11 03:17:07;;;;;;;36.83;21.93;;;-5.80;99.90;;;;;;5080406;28;20204;-74
2021/01/11 03:19:33;;;;;;;41.80;24.17;;;-5.80;99.90;;;;;;5087016;28;20178;-73
2021/01/11 03:21:59;;;;;;;35.67;23.43;;;-5.70;99.90;;;;;;5088174;28;20730;-73
2021/01/11 03:24:24;;;;;;;33.80;23.10;;;-5.70;99.90;;;;;;5081431;28;20170;-72
2021/01/11 03:26:51;;;;;;;38.87;23.63;;;-5.60;99.90;;;;;;5082853;28;20312;-73
2021/01/11 03:29:18;;;;;;;34.00;22.20;;;-5.60;99.90;;;;;;5078519;28;20190;-73
2021/01/11 03:31:45;;;;;;;32.30;22.57;;;-5.60;99.90;;;;;;5079627;28;20210;-72
2021/01/11 03:34:11;;;;;;;33.93;22.40;;;-5.60;99.90;;;;;;5089694;28;20206;-72
2021/01/11 03:36:38;;;;;;;35.20;23.43;;;-5.60;99.90;;;;;;5080382;28;20207;-72
2021/01/11 03:39:05;;;;;;;35.83;23.30;;;-5.60;99.90;;;;;;5089824;28;20239;-74
2021/01/11 03:41:33;;;;;;;34.63;22.53;;;-5.60;99.90;;;;;;5079642;28;20190;-73
2021/01/11 03:43:59;;;;;;;33.00;22.17;;;-5.60;99.90;;;;;;5080831;28;20181;-72
2021/01/11 03:46:24;;;;;;;36.13;22.77;;;-5.60;99.90;;;;;;5080079;28;20262;-73
2021/01/11 03:48:50;;;;;;;36.63;22.23;;;-5.60;99.90;;;;;;5082734;28;20186;-73
2021/01/11 03:51:15;;;;;;;37.20;22.67;;;-5.60;99.90;;;;;;5082605;28;20265;-73
2021/01/11 03:53:44;;;;;;;34.33;22.57;;;-5.70;99.90;;;;;;5075328;28;20202;-73
2021/01/11 03:56:10;;;;;;;33.60;23.03;;;-5.70;99.90;;;;;;5084418;28;20599;-73
2021/01/11 03:58:36;;;;;;;31.17;21.90;;;-5.80;99.90;;;;;;5090590;28;20173;-73
2021/01/11 04:01:02;;;;;;;35.77;22.97;;;-5.80;99.90;;;;;;5088432;28;20238;-72
2021/01/11 04:03:28;;;;;;;34.70;23.30;;;-5.80;99.90;;;;;;5086780;28;20209;-73
2021/01/11 04:05:54;;;;;;;39.33;24.53;;;-5.80;99.90;;;;;;5082521;28;20677;-72
2021/01/11 04:08:20;;;;;;;36.00;22.40;;;-5.70;99.90;;;;;;5086661;28;20884;-71
2021/01/11 04:10:46;;;;;;;33.77;22.57;;;-5.70;99.90;;;;;;5082502;28;20220;-72
2021/01/11 04:13:12;;;;;;;37.07;23.57;;;-5.70;99.90;;;;;;5082683;28;20267;-71
2021/01/11 04:15:37;;;;;;;33.60;21.97;;;-5.70;99.90;;;;;;5082331;28;20696;-74
2021/01/11 04:18:03;;;;;;;35.70;23.47;;;-5.70;99.90;;;;;;5071801;28;20212;-72
2021/01/11 04:20:29;;;;;;;33.73;22.70;;;-5.70;99.90;;;;;;5078162;28;20199;-71
2021/01/11 04:22:56;;;;;;;37.30;23.47;;;-5.80;99.90;;;;;;5081624;28;20645;-71
2021/01/11 04:25:23;;;;;;;34.03;22.17;;;-5.80;99.90;;;;;;5078911;28;20264;-73
2021/01/11 04:27:49;;;;;;;32.30;21.57;;;-5.80;99.90;;;;;;5077397;28;20733;-73
2021/01/11 04:30:15;;;;;;;37.03;21.13;;;-5.80;99.90;;;;;;5084535;28;20267;-73
2021/01/11 04:32:40;;;;;;;28.17;20.07;;;-5.80;99.90;;;;;;5089022;28;20588;-73
2021/01/11 04:35:08;;;;;;;33.57;22.40;;;-5.80;99.90;;;;;;5085034;28;20186;-73
2021/01/11 04:37:34;;;;;;;33.57;21.03;;;-5.80;99.90;;;;;;5077064;28;20167;-73
2021/01/11 04:40:00;;;;;;;31.50;20.60;;;-5.80;99.90;;;;;;5083753;28;20297;-72
2021/01/11 04:42:49;;;;;;;31.70;20.50;;;-5.80;99.90;;;;;;5078577;28;20182;-74
2021/01/11 04:45:16;;;;;;;32.33;20.97;;;-5.80;99.90;;;;;;5081769;28;20579;-73
2021/01/11 04:47:42;;;;;;;31.83;21.38;;;-5.90;99.90;;;;;;5085721;28;20503;-73
2021/01/11 04:50:09;;;;;;;36.77;23.17;;;-5.90;99.90;;;;;;5089053;28;20186;-73
2021/01/11 04:52:35;;;;;;;34.20;20.57;;;-5.90;99.90;;;;;;5093784;28;20231;-72
2021/01/11 04:55:02;;;;;;;32.97;22.37;;;-6.00;99.90;;;;;;5082008;28;20186;-73
2021/01/11 04:57:33;;;;;;;35.27;21.77;;;-6.00;99.90;;;;;;5081785;28;20219;-72
2021/01/11 05:00:10;;;;;;;33.07;21.80;;;-6.10;99.90;;;;;;5077115;28;20178;-72
2021/01/11 05:02:42;;;;;;;39.70;21.90;;;-6.10;99.90;;;;;;5079866;28;20193;-73
2021/01/11 05:05:09;;;;;;;33.57;22.50;;;-6.10;99.90;;;;;;5084341;28;20189;-73
2021/01/11 05:07:35;;;;;;;37.10;22.97;;;-6.10;99.90;;;;;;5077531;28;20181;-72
2021/01/11 05:10:00;;;;;;;37.63;22.83;;;-6.10;99.90;;;;;;5078349;28;20187;-73
2021/01/11 05:12:27;;;;;;;41.23;25.07;;;-6.10;99.90;;;;;;5081586;28;20209;-72
2021/01/11 05:15:18;;;;;;;35.87;23.30;;;-6.00;99.90;;;;;;5077412;28;20699;-74
2021/01/11 05:17:45;;;;;;;38.53;24.07;;;-6.00;99.90;;;;;;5075464;28;20187;-75
2021/01/11 05:20:12;;;;;;;37.63;23.17;;;-6.00;99.90;;;;;;5083429;28;20213;-75
2021/01/11 05:22:39;;;;;;;36.70;23.00;;;-6.00;99.90;;;;;;5077323;28;20757;-72
2021/01/11 05:25:16;;;;;;;39.90;24.50;;;-5.90;99.90;;;;;;5074900;28;20340;-73
2021/01/11 05:27:43;;;;;;;35.43;22.30;;;-5.90;99.90;;;;;;5077835;28;20230;-73
2021/01/11 05:30:30;;;;;;;37.43;21.70;;;-5.80;99.90;;;;;;5089317;28;20243;-73
2021/01/11 05:32:56;;;;;;;34.80;20.37;;;-5.70;99.90;;;;;;5079624;28;20230;-74
2021/01/11 05:35:23;;;;;;;29.93;20.60;;;-5.70;99.90;;;;;;5078384;28;20220;-73
2021/01/11 05:37:51;;;;;;;30.77;19.83;;;-5.70;99.90;;;;;;5080482;28;20186;-75
2021/01/11 05:40:20;;;;;;;31.07;20.03;;;-5.70;99.90;;;;;;5081281;28;20181;-73
2021/01/11 05:42:57;;;;;;;33.17;19.97;;;-5.70;99.90;;;;;;5079530;28;20967;-74
2021/01/11 05:45:27;;;;;;;35.57;16.87;;;-5.80;99.90;;;;;;5075159;28;20248;-75
2021/01/11 05:48:12;;;;;;;33.53;20.40;;;-5.80;99.90;;;;;;5081268;28;20184;-75
2021/01/11 05:50:45;;;;;;;31.90;20.43;;;-5.90;99.90;;;;;;5083916;28;20655;-74
2021/01/11 05:53:17;;;;;;;34.10;20.63;;;-5.90;99.90;;;;;;5076450;28;20243;-72
2021/01/11 05:55:43;;;;;;;33.27;21.20;;;-5.90;99.90;;;;;;5076201;28;20210;-75
2021/01/11 05:58:10;;;;;;;32.90;20.67;;;-6.00;99.90;;;;;;5073381;28;20184;-72
2021/01/11 06:00:38;;;;;;;34.80;20.90;;;-6.00;99.90;;;;;;5080774;28;20186;-72
2021/01/11 06:03:05;;;;;;;33.33;21.10;;;-6.10;99.90;;;;;;5081065;28;20281;-72
2021/01/11 06:05:32;;;;;;;35.30;20.70;;;-6.00;99.90;;;;;;5076172;28;20209;-73
2021/01/11 06:08:06;;;;;;;37.22;24.20;;;-6.00;99.90;;;;;;5072218;28;20445;-74
2021/01/11 06:10:32;;;;;;;32.93;21.60;;;-6.00;99.90;;;;;;5081022;28;20237;-72
2021/01/11 06:12:58;;;;;;;34.40;21.43;;;-6.00;99.90;;;;;;5080645;28;20250;-74
2021/01/11 06:15:26;;;;;;;36.17;21.43;;;-6.00;99.90;;;;;;5077959;28;20201;-73
2021/01/11 06:17:54;;;;;;;33.23;20.77;;;-6.00;99.90;;;;;;5080051;28;20617;-74
2021/01/11 06:20:22;;;;;;;31.40;20.13;;;-6.00;99.90;;;;;;5079881;28;20537;-74
2021/01/11 06:22:50;;;;;;;30.33;20.23;;;-6.00;99.90;;;;;;5073448;28;20187;-73
2021/01/11 06:25:24;;;;;;;32.30;20.23;;;-6.00;99.90;;;;;;5076905;28;20191;-73
2021/01/11 06:28:01;;;;;;;31.57;19.53;;;-6.00;99.90;;;;;;5078088;28;20184;-72
2021/01/11 06:30:33;;;;;;;27.30;18.00;;;-6.00;99.90;;;;;;5074193;28;20212;-72
2021/01/11 06:33:13;;;;;;;37.27;28.57;;;-6.00;99.90;;;;;;5075257;28;20920;-73
2021/01/11 06:35:56;;;;;;;33.87;22.07;;;-6.00;99.90;;;;;;5078918;28;20197;-72
2021/01/11 06:38:25;;;;;;;30.93;20.93;;;-6.00;99.90;;;;;;5073464;28;20254;-73
2021/01/11 06:41:03;;;;;;;30.13;19.57;;;-6.00;99.90;;;;;;5078783;28;20662;-72
2021/01/11 06:43:43;;;;;;;32.90;19.57;;;-6.00;99.90;;;;;;5084091;28;20264;-73
2021/01/11 06:46:27;;;;;;;31.42;20.13;;;-6.00;99.90;;;;;;5077163;28;20433;-72
2021/01/11 06:48:54;;;;;;;32.77;20.20;;;-6.00;99.90;;;;;;5072435;28;20185;-75
2021/01/11 06:51:39;;;;;;;32.67;19.40;;;-6.00;99.90;;;;;;5081369;28;20262;-74
2021/01/11 06:54:13;;;;;;;32.75;25.67;;;-5.90;99.90;;;;;;5072578;28;20413;-72
2021/01/11 06:56:41;;;;;;;32.78;25.63;;;-5.90;99.90;;;;;;5076728;28;20419;-74
2021/01/11 06:59:08;;;;;;;32.43;21.50;;;-5.80;99.90;;;;;;5083528;28;20183;-73
2021/01/11 07:01:38;;;;;;;31.13;19.70;;;-5.80;99.90;;;;;;5084596;28;20175;-73
2021/01/11 07:04:04;;;;;;;28.90;18.93;;;-5.80;99.90;;;;;;5079220;28;20183;-73
2021/01/11 07:06:41;;;;;;;32.70;19.50;;;-5.80;99.90;;;;;;5079829;28;20744;-73
2021/01/11 07:09:13;;;;;;;32.42;24.38;;;-5.80;99.90;;;;;;5074044;28;20411;-74
2021/01/11 07:11:42;;;;;;;34.53;21.03;;;-5.80;99.90;;;;;;5077564;28;20268;-73
2021/01/11 07:14:09;;;;;;;29.67;18.87;;;-5.80;99.90;;;;;;5090302;28;20215;-73
2021/01/11 07:16:40;;;;;;;31.03;19.07;;;-5.80;99.90;;;;;;5082610;28;20201;-73
2021/01/11 07:19:07;;;;;;;26.13;17.40;;;-5.70;99.90;;;;;;5076192;28;20184;-72
2021/01/11 07:21:35;;;;;;;30.83;18.40;;;-5.70;99.90;;;;;;5078080;28;20584;-74
2021/01/11 07:24:03;;;;;;;33.20;19.17;;;-5.60;99.90;;;;;;5077307;28;20213;-74
2021/01/11 07:26:29;;;;;;;28.33;19.07;;;-5.60;99.90;;;;;;5078844;28;20202;-72
2021/01/11 07:28:55;;;;;;;27.10;17.97;;;-5.60;99.90;;;;;;5080926;28;20524;-73
2021/01/11 07:31:22;;;;;;;26.90;17.70;;;-5.60;99.90;;;;;;5087790;28;20202;-73
2021/01/11 07:33:52;;;;;;;29.90;18.27;;;-5.50;99.90;;;;;;5087615;28;20241;-72
2021/01/11 07:36:19;;;;;;;27.53;17.70;;;-5.40;99.90;;;;;;5082321;28;20685;-72
2021/01/11 07:38:45;;;;;;;28.03;18.07;;;-5.30;99.90;;;;;;5079578;28;20265;-72
2021/01/11 07:41:25;;;;;;;26.93;17.50;;;-5.20;99.90;;;;;;5070312;28;20277;-72
2021/01/11 07:43:52;;;;;;;24.33;16.40;;;-4.90;99.10;;;;;;5073012;28;20201;-72
2021/01/11 07:46:23;;;;;;;25.30;16.57;;;-4.20;97.80;;;;;;5072327;28;20262;-73
2021/01/11 07:48:49;;;;;;;21.50;13.63;;;-3.30;94.90;;;;;;5070958;28;20207;-72
2021/01/11 07:51:15;;;;;;;22.77;15.80;;;-2.90;92.80;;;;;;5072581;28;20186;-72
2021/01/11 07:53:41;;;;;;;26.00;16.60;;;-2.60;91.70;;;;;;5063304;28;20262;-72
2021/01/11 07:56:08;;;;;;;22.90;15.63;;;-2.40;90.70;;;;;;5070826;28;20195;-73
2021/01/11 07:58:34;;;;;;;22.37;15.90;;;-2.20;90.00;;;;;;5073292;28;20211;-74
2021/01/11 08:01:04;;;;;;;23.73;15.60;;;-2.00;88.40;;;;;;5067895;28;20185;-73
2021/01/11 08:03:29;;;;;;;22.57;16.03;;;-1.90;87.80;;;;;;5062437;28;20253;-74
2021/01/11 08:06:05;;;;;;;20.77;15.33;;;-1.70;85.80;;;;;;5071104;28;20237;-73
2021/01/11 08:08:33;;;;;;;22.93;16.43;;;-1.30;83.80;;;;;;5078147;28;20605;-72
2021/01/11 08:11:03;;;;;;;18.73;15.30;;;-0.70;79.10;;;;;;5074512;28;20690;-73
2021/01/11 08:13:29;;;;;;;21.27;15.70;;;-0.20;75.70;;;;;;5080879;28;20219;-73
2021/01/11 08:16:08;;;;;;;20.70;15.07;;;0.00;75.00;;;;;;5086990;28;20201;-73
2021/01/11 08:18:34;;;;;;;22.05;18.40;;;0.20;71.70;;;;;;5074133;28;21019;-73
2021/01/11 08:21:10;;;;;;;22.47;17.27;;;0.30;69.90;;;;;;5086233;28;20201;-73
2021/01/11 08:23:36;;;;;;;20.13;14.57;;;0.90;67.20;;;;;;5075348;28;20184;-72
2021/01/11 08:26:07;;;;;;;21.53;15.60;;;1.00;63.50;;;;;;5083326;28;20224;-72
2021/01/11 08:28:33;;;;;;;19.60;14.43;;;1.20;61.70;;;;;;5083241;28;20186;-72
2021/01/11 08:31:00;;;;;;;19.03;14.50;;;1.70;59.70;;;;;;5100068;28;20199;-73
2021/01/11 08:33:31;;;;;;;17.87;13.93;;;2.20;58.00;;;;;;5101031;28;20204;-74
2021/01/11 08:36:17;;;;;;;20.37;15.33;;;3.10;56.00;;;;;;5084867;28;20203;-73
2021/01/11 08:39:12;;;;;;;20.33;16.00;;;2.90;55.00;;;;;;5077639;28;20246;-73
2021/01/11 08:41:50;;;;;;;17.73;14.17;;;3.40;54.60;;;;;;5080564;28;20190;-72
2021/01/11 08:44:28;;;;;;;18.20;15.70;;;3.90;53.00;;;;;;5085891;28;20182;-72
2021/01/11 08:47:04;;;;;;;18.60;16.60;;;4.30;52.20;;;;;;5087227;28;20254;-74
2021/01/11 08:49:30;;;;;;;22.60;17.53;;;4.30;51.50;;;;;;5075729;28;20186;-73
2021/01/11 08:52:10;;;;;;;18.03;15.87;;;3.50;53.20;;;;;;5076453;28;20230;-72
2021/01/11 08:54:37;;;;;;;20.67;17.10;;;2.90;55.40;;;;;;5073120;28;20255;-71
2021/01/11 08:57:14;;;;;;;20.33;17.37;;;2.80;56.30;;;;;;5077783;28;20210;-73
2021/01/11 08:59:51;;;;;;;21.90;19.75;;;3.30;55.50;;;;;;5073223;28;20412;-72
2021/01/11 09:02:24;;;;;;;19.47;17.43;;;3.70;54.50;;;;;;5075670;28;20199;-71
2021/01/11 09:04:50;;;;;;;19.23;16.30;;;4.50;52.70;;;;;;5082847;28;20884;-72
2021/01/11 09:07:25;;;;;;;22.07;19.43;;;5.20;51.10;;;;;;5076162;28;20217;-72
2021/01/11 09:09:50;;;;;;;19.63;17.40;;;5.20;49.60;;;;;;5081027;28;20234;-72
2021/01/11 09:12:16;;;;;;;20.67;16.90;;;4.60;50.20;;;;;;5079237;28;20936;-72
2021/01/11 09:14:54;;;;;;;19.00;16.97;;;4.30;51.00;;;;;;5083365;28;20282;-72
2021/01/11 09:17:31;;;;;;;21.10;17.13;;;3.80;52.00;;;;;;5081893;28;20206;-73
2021/01/11 09:20:07;;;;;;;20.60;17.70;;;3.60;52.80;;;;;;5077151;28;20199;-73
2021/01/11 09:22:34;;;;;;;21.03;16.97;;;4.20;52.30;;;;;;5077224;28;20194;-71
2021/01/11 09:25:02;;;;;;;20.13;17.07;;;4.90;50.70;;;;;;5077291;28;20182;-72
2021/01/11 09:27:27;;;;;;;20.10;17.93;;;5.10;50.20;;;;;;5077058;28;20221;-71
2021/01/11 09:29:53;;;;;;;19.90;16.43;;;5.80;49.30;;;;;;5072028;28;20205;-72
2021/01/11 09:32:19;;;;;;;19.77;17.20;;;6.50;47.90;;;;;;5080693;28;20360;-73
2021/01/11 09:34:45;;;;;;;19.87;16.53;;;7.30;45.30;;;;;;5073491;28;20182;-73
2021/01/11 09:37:12;;;;;;;19.37;17.20;;;7.70;44.40;;;;;;5081953;28;20550;-73
2021/01/11 09:39:38;;;;;;;21.50;16.43;;;8.40;42.40;;;;;;5081746;28;20242;-73
2021/01/11 09:42:04;;;;;;;19.05;17.13;;;8.60;40.90;;;;;;5080562;28;20656;-72
2021/01/11 09:44:32;;;;;;;19.27;17.48;;;9.00;40.90;;;;;;5080285;28;20175;-74
2021/01/11 09:46:59;;;;;;;18.95;16.95;;;8.70;40.50;;;;;;5073769;28;20221;-73
2021/01/11 09:49:25;;;;;;;19.38;17.30;;;7.80;41.60;;;;;;5086016;28;20193;-74
2021/01/11 09:51:51;;;;;;;19.73;17.63;;;6.90;42.60;;;;;;5075625;28;20195;-72
2021/01/11 09:54:17;;;;;;;19.37;17.33;;;6.80;44.50;;;;;;5072364;28;20185;-72
2021/01/11 09:56:43;;;;;;;19.50;17.40;;;6.70;44.90;;;;;;5084401;28;20206;-72
2021/01/11 09:59:09;;;;;;;19.70;17.57;;;6.60;44.90;;;;;;5073198;28;20265;-73
2021/01/11 10:01:39;;;;;;;19.03;17.03;;;6.30;45.90;;;;;;5083089;28;20582;-74
2021/01/11 10:04:05;;;;;;;18.80;16.53;;;7.60;44.40;;;;;;5084775;28;20197;-74
2021/01/11 10:06:49;;;;;;;17.23;15.53;;;7.90;43.20;;;;;;5083393;28;20197;-73
2021/01/11 10:09:17;;;;;;;18.08;16.13;;;8.60;43.10;;;;;;5076790;28;20186;-70
2021/01/11 10:11:46;;;;;;;18.73;16.80;;;9.50;41.10;;;;;;5082858;28;20182;-74
2021/01/11 10:14:12;;;;;;;18.58;16.77;;;9.60;39.90;;;;;;5083354;28;20275;-71
2021/01/11 10:16:44;;;;;;;18.30;16.55;;;9.80;39.10;;;;;;5083974;28;20693;-72
2021/01/11 10:19:14;;;;;;;21.27;17.75;;;9.30;39.80;;;;;;5081760;28;20254;-73
2021/01/11 10:21:40;;;;;;;18.08;16.17;;;9.40;40.50;;;;;;5083753;28;20193;-73
2021/01/11 10:24:06;;;;;;;20.13;16.90;;;9.80;40.20;;;;;;5078253;28;20190;-71
2021/01/11 10:26:33;;;;;;;21.00;19.00;;;9.90;39.60;;;;;;5074660;28;20426;-71
2021/01/11 10:28:59;;;;;;;19.98;18.02;;;10.30;39.20;;;;;;5079415;28;20178;-72
2021/01/11 10:31:25;;;;;;;23.13;20.70;;;10.00;39.30;;;;;;5083211;28;20296;-71
2021/01/11 10:33:51;;;;;;;20.63;18.15;;;10.20;39.60;;;;;;5086334;28;20680;-73
2021/01/11 10:36:17;;;;;;;18.70;16.77;;;9.80;39.20;;;;;;5086646;28;20212;-73
2021/01/11 10:38:43;;;;;;;18.45;16.60;;;9.50;39.40;;;;;;5090568;28;20210;-71
2021/01/11 10:41:14;;;;;;;18.77;16.83;;;8.80;41.00;;;;;;5092571;28;20672;-71
2021/01/11 10:43:40;;;;;;;19.88;16.58;;;9.00;40.90;;;;;;5085925;28;20721;-72
2021/01/11 10:46:05;;;;;;;18.42;15.35;;;9.90;39.90;;;;;;5080665;28;20202;-73
2021/01/11 10:48:31;;;;;;;18.75;16.73;;;10.70;37.80;;;;;;5076239;28;20189;-71
2021/01/11 10:50:56;;;;;;;20.25;16.67;;;10.70;38.00;;;;;;5089985;28;20190;-71
2021/01/11 10:53:22;;;;;;;17.17;14.95;;;10.70;38.10;;;;;;5080407;28;20202;-72
2021/01/11 10:55:48;;;;;;;15.60;14.10;;;10.90;37.10;;;;;;5081930;28;20275;-71
2021/01/11 10:58:14;;;;;;;17.00;14.88;;;11.20;37.30;;;;;;5077896;28;20597;-72
2021/01/11 11:00:39;;;;;;;36.80;26.17;;;11.10;37.00;;;;;;5077257;28;20225;-72
2021/01/11 11:03:07;;;;;;;23.75;19.88;;;11.20;36.90;;;;;;5088922;28;20752;-74
2021/01/11 11:05:33;;;;;;;40.70;28.55;;;10.60;37.10;;;;;;5083149;28;20408;-72
2021/01/11 11:07:58;;;;;;;36.13;23.42;;;10.80;37.60;;;;;;5087960;28;20237;-72
2021/01/11 11:10:24;;;;;;;29.88;21.63;;;11.30;36.60;;;;;;5079957;28;20199;-72
2021/01/11 11:12:50;;;;;;;28.88;20.40;;;11.30;36.20;;;;;;5081171;28;20248;-72
2021/01/11 11:15:16;;;;;;;27.80;20.40;;;11.70;36.70;;;;;;5084484;28;20206;-72
2021/01/11 11:17:42;;;;;;;26.90;18.45;;;11.60;36.00;;;;;;5081295;28;20249;-72
2021/01/11 11:20:08;;;;;;;32.92;22.98;;;11.70;35.30;;;;;;5080060;28;20631;-72
2021/01/11 11:22:35;;;;;;;20.17;18.13;;;11.80;34.90;;;;;;5086272;28;20428;-72
2021/01/11 11:25:06;;;;;;;21.05;18.95;;;10.90;35.50;;;;;;5082513;28;20252;-73
2021/01/11 11:27:33;;;;;;;26.13;23.42;;;9.80;37.70;;;;;;5077736;28;20250;-72
2021/01/11 11:29:59;;;;;;;18.65;16.75;;;8.50;40.40;;;;;;5081583;28;20597;-72
2021/01/11 11:32:25;;;;;;;18.08;15.82;;;7.40;42.20;;;;;;5076514;28;20194;-72
2021/01/11 11:34:50;;;;;;;15.70;14.25;;;7.10;44.40;;;;;;5074335;28;20228;-72
2021/01/11 11:37:18;;;;;;;15.18;13.68;;;6.90;43.70;;;;;;5077014;28;20209;-72
2021/01/11 11:39:44;;;;;;;15.77;14.20;;;7.20;44.50;;;;;;5076958;28;20182;-71
2021/01/11 11:42:10;;;;;;;15.90;14.20;;;7.70;43.70;;;;;;5080423;28;20673;-72
2021/01/11 11:44:35;;;;;;;16.40;14.63;;;7.70;42.80;;;;;;5087428;28;20258;-71
2021/01/11 11:47:01;;;;;;;17.37;15.67;;;6.50;44.70;;;;;;5079818;28;20211;-72
2021/01/11 11:49:26;;;;;;;18.50;16.50;;;5.20;48.00;;;;;;5083608;28;20420;-72
2021/01/11 11:51:52;;;;;;;17.30;15.23;;;4.80;49.60;;;;;;5073258;28;20193;-71
2021/01/11 11:54:18;;;;;;;15.97;14.27;;;4.50;50.40;;;;;;5078686;28;20179;-72
2021/01/11 11:56:44;;;;;;;22.07;16.90;;;5.10;50.00;;;;;;5074065;28;20205;-71
2021/01/11 11:59:10;;;;;;;19.27;14.87;;;7.10;47.40;;;;;;5080667;28;20174;-71
2021/01/11 12:01:37;;;;;;;16.37;14.67;;;8.90;43.20;;;;;;5095026;28;20541;-71
2021/01/11 12:04:03;;;;;;;13.45;12.15;;;10.10;39.80;;;;;;5083080;28;20265;-70
2021/01/11 12:06:40;;;;;;;15.63;14.02;;;10.40;37.10;;;;;;5085184;28;20229;-71
2021/01/11 12:09:06;;;;;;;15.02;13.50;;;10.00;38.10;;;;;;5078437;28;20242;-71
2021/01/11 12:11:45;;;;;;;15.57;14.07;;;10.20;38.10;;;;;;5081871;28;20206;-72
2021/01/11 12:14:11;;;;;;;16.33;14.73;;;10.20;38.40;;;;;;5083330;28;20189;-72
2021/01/11 12:16:37;;;;;;;16.60;14.93;;;10.60;37.80;;;;;;5090837;28;20358;-72
2021/01/11 12:19:04;;;;;;;16.05;14.45;;;11.40;37.00;;;;;;5085453;28;20279;-72
2021/01/11 12:21:31;;;;;;;18.45;15.27;;;11.50;36.40;;;;;;5088686;28;20187;-73
2021/01/11 12:23:57;;;;;;;16.00;14.45;;;12.40;35.40;;;;;;5079167;28;20592;-71
2021/01/11 12:26:23;;;;;;;15.75;14.25;;;11.80;35.40;;;;;;5076505;28;20202;-73
2021/01/11 12:28:49;;;;;;;17.90;14.43;;;11.70;34.80;;;;;;5074170;28;20204;-72
2021/01/11 12:31:15;;;;;;;17.08;14.45;;;11.10;35.80;;;;;;5075737;28;20179;-73
2021/01/11 12:33:40;;;;;;;16.42;14.73;;;10.60;37.10;;;;;;5088634;28;20210;-73
2021/01/11 12:36:06;;;;;;;16.17;14.55;;;11.30;36.30;;;;;;5076509;28;20209;-72